sensor_id;sensor_type;location;lat;lon;timestamp;pressure;altitude;pressure_sealevel;temperature;humidity
24390;BME280;12510;56.468;-3.004;2024-03-25T00:01:10;52656.59;;;-148.32;nan
24390;BME280;12510;56.468;-3.004;2024-03-25T00:03:36;52650.63;;;-148.32;nan
24390;BME280;12510;56.468;-3.004;2024-03-25T00:06:03;52662.56;;;-148.32;nan
24390;BME280;12510;56.468;-3.004;2024-03-25T00:08:29;52656.59;;;-148.32;nan
24390;BME280;12510;56.468;-3.004;2024-03-25T00:10:55;52608.81;;;-148.32;nan
24390;BME280;12510;56.468;-3.004;2024-03-25T00:13:22;52640.66;;;-148.32;nan
24390;BME280;12510;56.468;-3.004;2024-03-25T00:15:49;52646.63;;;-148.32;nan
24390;BME280;12510;56.468;-3.004;2024-03-25T00:18:15;52608.81;;;-148.32;nan
24390;BME280;12510;56.468;-3.004;2024-03-25T00:20:41;52620.75;;;-148.32;nan
24390;BME280;12510;56.468;-3.004;2024-03-25T00:23:08;52578.94;;;-148.32;nan
24390;BME280;12510;56.468;-3.004;2024-03-25T00:25:37;52545.09;;;-148.32;nan
24390;BME280;12510;56.468;-3.004;2024-03-25T00:28:14;52505.28;;;-148.32;nan
24390;BME280;12510;56.468;-3.004;2024-03-25T00:30:41;52525.19;;;-148.32;nan
24390;BME280;12510;56.468;-3.004;2024-03-25T00:33:07;52539.13;;;-148.32;nan
24390;BME280;12510;56.468;-3.004;2024-03-25T00:35:34;52563.00;;;-148.32;nan
24390;BME280;12510;56.468;-3.004;2024-03-25T00:38:00;52600.84;;;-148.32;nan
24390;BME280;12510;56.468;-3.004;2024-03-25T00:40:26;52576.94;;;-148.32;nan
24390;BME280;12510;56.468;-3.004;2024-03-25T00:42:58;52616.78;;;-148.32;nan
24390;BME280;12510;56.468;-3.004;2024-03-25T00:45:27;52614.78;;;-148.32;nan
24390;BME280;12510;56.468;-3.004;2024-03-25T00:48:02;52676.50;;;-148.32;nan
24390;BME280;12510;56.468;-3.004;2024-03-25T00:50:33;52660.56;;;-148.32;nan
24390;BME280;12510;56.468;-3.004;2024-03-25T00:52:59;52616.78;;;-148.32;nan
24390;BME280;12510;56.468;-3.004;2024-03-25T00:55:26;52565.00;;;-148.32;nan
24390;BME280;12510;56.468;-3.004;2024-03-25T00:57:52;52547.09;;;-148.32;nan
24390;BME280;12510;56.468;-3.004;2024-03-25T01:00:20;52521.19;;;-148.32;nan
24390;BME280;12510;56.468;-3.004;2024-03-25T01:02:47;52541.09;;;-148.32;nan
24390;BME280;12510;56.468;-3.004;2024-03-25T01:11:20;52574.97;;;-148.32;nan
24390;BME280;12510;56.468;-3.004;2024-03-25T01:18:25;52628.72;;;-148.32;nan
24390;BME280;12510;56.468;-3.004;2024-03-25T01:20:52;52592.88;;;-148.32;nan
24390;BME280;12510;56.468;-3.004;2024-03-25T01:23:19;52565.00;;;-148.32;nan
24390;BME280;12510;56.468;-3.004;2024-03-25T01:25:45;52592.88;;;-148.32;nan
24390;BME280;12510;56.468;-3.004;2024-03-25T01:28:15;52561.03;;;-148.32;nan
24390;BME280;12510;56.468;-3.004;2024-03-25T01:30:41;52584.91;;;-148.32;nan
24390;BME280;12510;56.468;-3.004;2024-03-25T01:33:09;52664.56;;;-148.32;nan
24390;BME280;12510;56.468;-3.004;2024-03-25T01:35:37;52788.00;;;-148.32;nan
24390;BME280;12510;56.468;-3.004;2024-03-25T01:41:07;52616.78;;;-148.32;nan
24390;BME280;12510;56.468;-3.004;2024-03-25T01:43:55;52624.72;;;-148.32;nan
24390;BME280;12510;56.468;-3.004;2024-03-25T01:46:29;52602.84;;;-148.32;nan
24390;BME280;12510;56.468;-3.004;2024-03-25T01:48:58;52555.03;;;-148.32;nan
24390;BME280;12510;56.468;-3.004;2024-03-25T01:51:28;52608.81;;;-148.32;nan
24390;BME280;12510;56.468;-3.004;2024-03-25T01:54:36;52640.66;;;-148.32;nan
24390;BME280;12510;56.468;-3.004;2024-03-25T01:57:16;52612.78;;;-148.32;nan
24390;BME280;12510;56.468;-3.004;2024-03-25T01:59:48;52563.00;;;-148.32;nan
24390;BME280;12510;56.468;-3.004;2024-03-25T02:02:15;52533.16;;;-148.32;nan
24390;BME280;12510;56.468;-3.004;2024-03-25T02:04:41;52497.31;;;-148.32;nan
24390;BME280;12510;56.468;-3.004;2024-03-25T02:07:08;52648.63;;;-148.32;nan
24390;BME280;12510;56.468;-3.004;2024-03-25T02:09:37;52499.31;;;-148.32;nan
24390;BME280;12510;56.468;-3.004;2024-03-25T02:12:05;52425.63;;;-148.32;nan
24390;BME280;12510;56.468;-3.004;2024-03-25T02:14:32;52551.06;;;-148.32;nan
24390;BME280;12510;56.468;-3.004;2024-03-25T02:16:59;52640.66;;;-148.32;nan
24390;BME280;12510;56.468;-3.004;2024-03-25T02:19:28;52529.16;;;-148.32;nan
24390;BME280;12510;56.468;-3.004;2024-03-25T02:21:56;52465.44;;;-148.32;nan
24390;BME280;12510;56.468;-3.004;2024-03-25T02:24:24;52407.72;;;-148.32;nan
24390;BME280;12510;56.468;-3.004;2024-03-25T02:27:01;52401.75;;;-148.32;nan
24390;BME280;12510;56.468;-3.004;2024-03-25T02:29:41;52306.19;;;-148.32;nan
24390;BME280;12510;56.468;-3.004;2024-03-25T02:32:39;52242.47;;;-148.32;nan
24390;BME280;12510;56.468;-3.004;2024-03-25T02:35:07;52240.47;;;-148.32;nan
24390;BME280;12510;56.468;-3.004;2024-03-25T02:37:34;52212.63;;;-148.32;nan
24390;BME280;12510;56.468;-3.004;2024-03-25T02:40:00;52228.53;;;-148.32;nan
24390;BME280;12510;56.468;-3.004;2024-03-25T02:42:28;52190.72;;;-148.32;nan
24390;BME280;12510;56.468;-3.004;2024-03-25T02:44:55;52202.66;;;-148.32;nan
24390;BME280;12510;56.468;-3.004;2024-03-25T02:47:22;52184.75;;;-148.32;nan
24390;BME280;12510;56.468;-3.004;2024-03-25T02:49:48;52274.31;;;-148.32;nan
24390;BME280;12510;56.468;-3.004;2024-03-25T02:52:15;52234.50;;;-148.32;nan
24390;BME280;12510;56.468;-3.004;2024-03-25T02:54:42;52166.81;;;-148.32;nan
24390;BME280;12510;56.468;-3.004;2024-03-25T02:57:08;52079.22;;;-148.32;nan
24390;BME280;12510;56.468;-3.004;2024-03-25T02:59:34;52055.34;;;-148.32;nan
24390;BME280;12510;56.468;-3.004;2024-03-25T03:02:00;52047.38;;;-148.32;nan
24390;BME280;12510;56.468;-3.004;2024-03-25T03:04:26;52035.44;;;-148.32;nan
24390;BME280;12510;56.468;-3.004;2024-03-25T03:06:52;52015.53;;;-148.32;nan
24390;BME280;12510;56.468;-3.004;2024-03-25T03:09:18;52013.53;;;-148.32;nan
24390;BME280;12510;56.468;-3.004;2024-03-25T03:11:45;52055.34;;;-148.32;nan
24390;BME280;12510;56.468;-3.004;2024-03-25T03:14:11;51987.66;;;-148.32;nan
24390;BME280;12510;56.468;-3.004;2024-03-25T03:16:39;51971.72;;;-148.32;nan
24390;BME280;12510;56.468;-3.004;2024-03-25T03:19:05;51929.94;;;-148.32;nan
24390;BME280;12510;56.468;-3.004;2024-03-25T03:21:32;51888.13;;;-148.32;nan
24390;BME280;12510;56.468;-3.004;2024-03-25T03:23:58;51852.28;;;-148.32;nan
24390;BME280;12510;56.468;-3.004;2024-03-25T03:26:24;51848.31;;;-148.32;nan
24390;BME280;12510;56.468;-3.004;2024-03-25T03:28:53;51870.22;;;-148.32;nan
24390;BME280;12510;56.468;-3.004;2024-03-25T03:31:20;51931.91;;;-148.32;nan
24390;BME280;12510;56.468;-3.004;2024-03-25T03:33:49;52551.06;;;-148.32;nan
24390;BME280;12510;56.468;-3.004;2024-03-25T03:36:16;52338.03;;;-148.32;nan
24390;BME280;12510;56.468;-3.004;2024-03-25T03:38:42;52248.44;;;-148.32;nan
24390;BME280;12510;56.468;-3.004;2024-03-25T03:41:08;52095.16;;;-148.32;nan
24390;BME280;12510;56.468;-3.004;2024-03-25T03:43:34;51975.72;;;-148.32;nan
24390;BME280;12510;56.468;-3.004;2024-03-25T03:46:01;51908.03;;;-148.32;nan
24390;BME280;12510;56.468;-3.004;2024-03-25T03:48:28;51864.22;;;-148.32;nan
24390;BME280;12510;56.468;-3.004;2024-03-25T03:50:55;51778.63;;;-148.32;nan
24390;BME280;12510;56.468;-3.004;2024-03-25T03:53:21;51850.31;;;-148.32;nan
24390;BME280;12510;56.468;-3.004;2024-03-25T03:55:58;51784.59;;;-148.32;nan
24390;BME280;12510;56.468;-3.004;2024-03-25T03:58:25;63517.41;;;-148.33;100.00
24390;BME280;12510;56.468;-3.004;2024-03-25T04:00:51;63517.41;;;-148.33;100.00
24390;BME280;12510;56.468;-3.004;2024-03-25T04:03:19;63517.41;;;-148.33;100.00
24390;BME280;12510;56.468;-3.004;2024-03-25T04:05:45;63517.41;;;-148.33;100.00
24390;BME280;12510;56.468;-3.004;2024-03-25T04:08:11;63517.41;;;-148.33;100.00
24390;BME280;12510;56.468;-3.004;2024-03-25T04:10:38;63517.41;;;-148.33;100.00
24390;BME280;12510;56.468;-3.004;2024-03-25T04:13:04;63517.41;;;-148.33;100.00
24390;BME280;12510;56.468;-3.004;2024-03-25T04:15:38;63517.41;;;-148.33;100.00
24390;BME280;12510;56.468;-3.004;2024-03-25T04:18:05;63517.41;;;-148.33;100.00
24390;BME280;12510;56.468;-3.004;2024-03-25T04:20:38;63517.41;;;-148.33;100.00
24390;BME280;12510;56.468;-3.004;2024-03-25T04:23:08;63517.41;;;-148.33;100.00
24390;BME280;12510;56.468;-3.004;2024-03-25T04:25:34;63517.41;;;-148.33;100.00
24390;BME280;12510;56.468;-3.004;2024-03-25T04:28:03;63517.41;;;-148.33;100.00
24390;BME280;12510;56.468;-3.004;2024-03-25T04:30:30;63517.41;;;-148.33;100.00
24390;BME280;12510;56.468;-3.004;2024-03-25T04:32:57;63517.41;;;-148.33;100.00
24390;BME280;12510;56.468;-3.004;2024-03-25T04:35:24;63517.41;;;-148.33;100.00
24390;BME280;12510;56.468;-3.004;2024-03-25T04:37:56;63517.41;;;-148.33;100.00
24390;BME280;12510;56.468;-3.004;2024-03-25T04:40:36;63517.41;;;-148.33;100.00
24390;BME280;12510;56.468;-3.004;2024-03-25T04:43:02;63517.41;;;-148.33;100.00
24390;BME280;12510;56.468;-3.004;2024-03-25T04:45:29;63517.41;;;-148.33;100.00
24390;BME280;12510;56.468;-3.004;2024-03-25T04:47:56;63517.41;;;-148.33;100.00
24390;BME280;12510;56.468;-3.004;2024-03-25T04:50:22;63517.41;;;-148.33;100.00
24390;BME280;12510;56.468;-3.004;2024-03-25T04:52:50;63517.41;;;-148.33;100.00
24390;BME280;12510;56.468;-3.004;2024-03-25T04:55:16;63517.41;;;-148.33;100.00
24390;BME280;12510;56.468;-3.004;2024-03-25T04:57:43;63517.41;;;-148.33;100.00
24390;BME280;12510;56.468;-3.004;2024-03-25T05:00:09;52923.41;;;-148.32;nan
24390;BME280;12510;56.468;-3.004;2024-03-25T05:02:39;51995.63;;;-148.32;nan
24390;BME280;12510;56.468;-3.004;2024-03-25T05:05:08;51794.56;;;-148.32;nan
24390;BME280;12510;56.468;-3.004;2024-03-25T05:07:35;51633.31;;;-148.32;nan
24390;BME280;12510;56.468;-3.004;2024-03-25T05:10:04;51515.88;;;-148.32;nan
24390;BME280;12510;56.468;-3.004;2024-03-25T05:12:31;51426.31;;;-148.32;nan
24390;BME280;12510;56.468;-3.004;2024-03-25T05:14:59;51342.72;;;-148.32;nan
24390;BME280;12510;56.468;-3.004;2024-03-25T05:17:25;51285.00;;;-148.32;nan
24390;BME280;12510;56.468;-3.004;2024-03-25T05:19:52;51261.13;;;-148.32;nan
24390;BME280;12510;56.468;-3.004;2024-03-25T05:22:18;51257.13;;;-148.32;nan
24390;BME280;12510;56.468;-3.004;2024-03-25T05:24:44;51249.19;;;-148.32;nan
24390;BME280;12510;56.468;-3.004;2024-03-25T05:27:10;51247.19;;;-148.32;nan
24390;BME280;12510;56.468;-3.004;2024-03-25T05:29:36;51239.22;;;-148.32;nan
24390;BME280;12510;56.468;-3.004;2024-03-25T05:32:03;51195.44;;;-148.32;nan
24390;BME280;12510;56.468;-3.004;2024-03-25T05:34:29;51213.34;;;-148.32;nan
24390;BME280;12510;56.468;-3.004;2024-03-25T05:36:57;51185.47;;;-148.32;nan
24390;BME280;12510;56.468;-3.004;2024-03-25T05:39:23;51201.41;;;-148.32;nan
24390;BME280;12510;56.468;-3.004;2024-03-25T05:41:49;51221.31;;;-148.32;nan
24390;BME280;12510;56.468;-3.004;2024-03-25T05:44:16;51213.34;;;-148.32;nan
24390;BME280;12510;56.468;-3.004;2024-03-25T05:46:43;51209.38;;;-148.32;nan
24390;BME280;12510;56.468;-3.004;2024-03-25T05:52:05;51271.06;;;-148.32;nan
24390;BME280;12510;56.468;-3.004;2024-03-25T05:54:56;51296.94;;;-148.32;nan
24390;BME280;12510;56.468;-3.004;2024-03-25T05:57:24;51308.88;;;-148.32;nan
24390;BME280;12510;56.468;-3.004;2024-03-25T05:59:50;51318.84;;;-148.32;nan
24390;BME280;12510;56.468;-3.004;2024-03-25T06:02:16;51306.91;;;-148.32;nan
24390;BME280;12510;56.468;-3.004;2024-03-25T06:04:43;51338.75;;;-148.32;nan
24390;BME280;12510;56.468;-3.004;2024-03-25T06:07:09;51275.06;;;-148.32;nan
24390;BME280;12510;56.468;-3.004;2024-03-25T06:09:36;51326.81;;;-148.32;nan
24390;BME280;12510;56.468;-3.004;2024-03-25T06:12:04;51348.69;;;-148.32;nan
24390;BME280;12510;56.468;-3.004;2024-03-25T06:14:30;51336.75;;;-148.32;nan
24390;BME280;12510;56.468;-3.004;2024-03-25T06:16:57;51356.66;;;-148.32;nan
24390;BME280;12510;56.468;-3.004;2024-03-25T06:19:23;51350.69;;;-148.32;nan
24390;BME280;12510;56.468;-3.004;2024-03-25T06:21:50;51354.66;;;-148.32;nan
24390;BME280;12510;56.468;-3.004;2024-03-25T06:24:17;51338.75;;;-148.32;nan
24390;BME280;12510;56.468;-3.004;2024-03-25T06:26:43;51362.63;;;-148.32;nan
24390;BME280;12510;56.468;-3.004;2024-03-25T06:29:09;51438.25;;;-148.32;nan
24390;BME280;12510;56.468;-3.004;2024-03-25T06:31:36;51494.00;;;-148.32;nan
24390;BME280;12510;56.468;-3.004;2024-03-25T06:34:21;51450.19;;;-148.32;nan
24390;BME280;12510;56.468;-3.004;2024-03-25T06:36:48;51497.97;;;-148.32;nan
24390;BME280;12510;56.468;-3.004;2024-03-25T06:39:14;51366.59;;;-148.32;nan
24390;BME280;12510;56.468;-3.004;2024-03-25T06:41:42;51350.69;;;-148.32;nan
24390;BME280;12510;56.468;-3.004;2024-03-25T06:44:10;51366.59;;;-148.32;nan
24390;BME280;12510;56.468;-3.004;2024-03-25T06:52:43;51271.06;;;-148.32;nan
24390;BME280;12510;56.468;-3.004;2024-03-25T06:55:11;51320.81;;;-148.32;nan
24390;BME280;12510;56.468;-3.004;2024-03-25T06:57:41;51235.25;;;-148.32;nan
24390;BME280;12510;56.468;-3.004;2024-03-25T07:00:09;51251.16;;;-148.32;nan
24390;BME280;12510;56.468;-3.004;2024-03-25T07:06:05;51107.88;;;-148.32;nan
24390;BME280;12510;56.468;-3.004;2024-03-25T07:08:32;51083.97;;;-148.32;nan
24390;BME280;12510;56.468;-3.004;2024-03-25T07:11:08;51179.50;;;-148.32;nan
24390;BME280;12510;56.468;-3.004;2024-03-25T07:13:35;51030.25;;;-148.32;nan
24390;BME280;12510;56.468;-3.004;2024-03-25T07:16:03;51018.31;;;-148.32;nan
24390;BME280;12510;56.468;-3.004;2024-03-25T07:18:30;50994.41;;;-148.32;nan
24390;BME280;12510;56.468;-3.004;2024-03-25T07:21:06;50992.44;;;-148.32;nan
24390;BME280;12510;56.468;-3.004;2024-03-25T07:27:03;51052.13;;;-148.32;nan
24390;BME280;12510;56.468;-3.004;2024-03-25T07:29:29;50992.44;;;-148.32;nan
24390;BME280;12510;56.468;-3.004;2024-03-25T07:31:55;51004.38;;;-148.32;nan
24390;BME280;12510;56.468;-3.004;2024-03-25T07:34:21;51034.22;;;-148.32;nan
24390;BME280;12510;56.468;-3.004;2024-03-25T07:36:53;51080.00;;;-148.32;nan
24390;BME280;12510;56.468;-3.004;2024-03-25T07:39:19;51038.19;;;-148.32;nan
24390;BME280;12510;56.468;-3.004;2024-03-25T07:41:50;51060.09;;;-148.32;nan
24390;BME280;12510;56.468;-3.004;2024-03-25T07:44:18;51076.03;;;-148.32;nan
24390;BME280;12510;56.468;-3.004;2024-03-25T07:46:50;51050.16;;;-148.32;nan
24390;BME280;12510;56.468;-3.004;2024-03-25T07:49:16;51097.91;;;-148.32;nan
24390;BME280;12510;56.468;-3.004;2024-03-25T07:51:42;51072.03;;;-148.32;nan
24390;BME280;12510;56.468;-3.004;2024-03-25T07:54:08;51099.91;;;-148.32;nan
24390;BME280;12510;56.468;-3.004;2024-03-25T07:56:36;51155.63;;;-148.32;nan
24390;BME280;12510;56.468;-3.004;2024-03-25T07:59:04;51159.59;;;-148.32;nan
24390;BME280;12510;56.468;-3.004;2024-03-25T08:01:39;51175.53;;;-148.32;nan
24390;BME280;12510;56.468;-3.004;2024-03-25T08:04:06;51183.50;;;-148.32;nan
24390;BME280;12510;56.468;-3.004;2024-03-25T08:06:33;51247.19;;;-148.32;nan
24390;BME280;12510;56.468;-3.004;2024-03-25T08:08:59;51287.00;;;-148.32;nan
24390;BME280;12510;56.468;-3.004;2024-03-25T08:11:26;51358.66;;;-148.32;nan
24390;BME280;12510;56.468;-3.004;2024-03-25T08:13:55;51251.16;;;-148.32;nan
24390;BME280;12510;56.468;-3.004;2024-03-25T08:16:25;51320.81;;;-148.32;nan
24390;BME280;12510;56.468;-3.004;2024-03-25T08:18:56;51370.59;;;-148.32;nan
24390;BME280;12510;56.468;-3.004;2024-03-25T08:21:22;51346.69;;;-148.32;nan
24390;BME280;12510;56.468;-3.004;2024-03-25T08:23:51;51344.72;;;-148.32;nan
24390;BME280;12510;56.468;-3.004;2024-03-25T08:26:17;51366.59;;;-148.32;nan
24390;BME280;12510;56.468;-3.004;2024-03-25T08:28:44;51430.28;;;-148.32;nan
24390;BME280;12510;56.468;-3.004;2024-03-25T08:31:14;51478.06;;;-148.32;nan
24390;BME280;12510;56.468;-3.004;2024-03-25T08:33:40;51490.00;;;-148.32;nan
24390;BME280;12510;56.468;-3.004;2024-03-25T08:36:07;51434.28;;;-148.32;nan
24390;BME280;12510;56.468;-3.004;2024-03-25T08:38:34;51444.22;;;-148.32;nan
24390;BME280;12510;56.468;-3.004;2024-03-25T08:41:00;51414.38;;;-148.32;nan
24390;BME280;12510;56.468;-3.004;2024-03-25T08:43:31;51454.19;;;-148.32;nan
24390;BME280;12510;56.468;-3.004;2024-03-25T08:46:29;51376.56;;;-148.32;nan
24390;BME280;12510;56.468;-3.004;2024-03-25T08:49:00;51486.03;;;-148.32;nan
24390;BME280;12510;56.468;-3.004;2024-03-25T08:54:37;51611.44;;;-148.32;nan
24390;BME280;12510;56.468;-3.004;2024-03-25T08:57:06;51669.16;;;-148.32;nan
24390;BME280;12510;56.468;-3.004;2024-03-25T08:59:33;51603.47;;;-148.32;nan
24390;BME280;12510;56.468;-3.004;2024-03-25T09:02:00;51595.50;;;-148.32;nan
24390;BME280;12510;56.468;-3.004;2024-03-25T09:04:26;51601.47;;;-148.32;nan
24390;BME280;12510;56.468;-3.004;2024-03-25T09:06:52;51585.56;;;-148.32;nan
24390;BME280;12510;56.468;-3.004;2024-03-25T09:09:19;51633.31;;;-148.32;nan
24390;BME280;12510;56.468;-3.004;2024-03-25T09:12:04;51605.47;;;-148.32;nan
24390;BME280;12510;56.468;-3.004;2024-03-25T09:17:31;51661.19;;;-148.32;nan
24390;BME280;12510;56.468;-3.004;2024-03-25T09:19:57;51657.22;;;-148.32;nan
24390;BME280;12510;56.468;-3.004;2024-03-25T09:22:24;51609.44;;;-148.32;nan
24390;BME280;12510;56.468;-3.004;2024-03-25T09:24:52;51681.09;;;-148.32;nan
24390;BME280;12510;56.468;-3.004;2024-03-25T09:30:23;51824.41;;;-148.32;nan
24390;BME280;12510;56.468;-3.004;2024-03-25T09:32:54;51864.22;;;-148.32;nan
24390;BME280;12510;56.468;-3.004;2024-03-25T09:35:21;51750.78;;;-148.32;nan
24390;BME280;12510;56.468;-3.004;2024-03-25T09:37:47;51906.03;;;-148.32;nan
24390;BME280;12510;56.468;-3.004;2024-03-25T09:50:28;52154.88;;;-148.32;nan
24390;BME280;12510;56.468;-3.004;2024-03-25T09:56:18;52166.81;;;-148.32;nan
24390;BME280;12510;56.468;-3.004;2024-03-25T10:05:37;52150.91;;;-148.32;nan
24390;BME280;12510;56.468;-3.004;2024-03-25T10:08:44;52198.69;;;-148.32;nan
24390;BME280;12510;56.468;-3.004;2024-03-25T10:11:58;52045.38;;;-148.32;nan
24390;BME280;12510;56.468;-3.004;2024-03-25T10:17:36;51995.63;;;-148.32;nan
24390;BME280;12510;56.468;-3.004;2024-03-25T10:26:37;52027.47;;;-148.32;nan
24390;BME280;12510;56.468;-3.004;2024-03-25T10:29:28;52077.25;;;-148.32;nan
24390;BME280;12510;56.468;-3.004;2024-03-25T10:32:13;52111.09;;;-148.32;nan
24390;BME280;12510;56.468;-3.004;2024-03-25T10:34:42;52031.44;;;-148.32;nan
24390;BME280;12510;56.468;-3.004;2024-03-25T10:37:09;51969.75;;;-148.32;nan
24390;BME280;12510;56.468;-3.004;2024-03-25T10:39:42;51929.94;;;-148.32;nan
24390;BME280;12510;56.468;-3.004;2024-03-25T10:42:22;51910.03;;;-148.32;nan
24390;BME280;12510;56.468;-3.004;2024-03-25T10:47:49;51828.41;;;-148.32;nan
24390;BME280;12510;56.468;-3.004;2024-03-25T10:51:13;51812.47;;;-148.32;nan
24390;BME280;12510;56.468;-3.004;2024-03-25T10:53:41;51864.22;;;-148.32;nan
24390;BME280;12510;56.468;-3.004;2024-03-25T10:56:09;51856.28;;;-148.32;nan
24390;BME280;12510;56.468;-3.004;2024-03-25T11:04:13;51916.00;;;-148.32;nan
24390;BME280;12510;56.468;-3.004;2024-03-25T11:06:39;51868.22;;;-148.32;nan
24390;BME280;12510;56.468;-3.004;2024-03-25T11:11:56;51923.94;;;-148.32;nan
24390;BME280;12510;56.468;-3.004;2024-03-25T11:14:33;51921.97;;;-148.32;nan
24390;BME280;12510;56.468;-3.004;2024-03-25T11:17:00;51912.00;;;-148.32;nan
24390;BME280;12510;56.468;-3.004;2024-03-25T11:19:27;51892.09;;;-148.32;nan
24390;BME280;12510;56.468;-3.004;2024-03-25T11:22:06;51808.50;;;-148.32;nan
24390;BME280;12510;56.468;-3.004;2024-03-25T11:31:06;51726.88;;;-148.32;nan
24390;BME280;12510;56.468;-3.004;2024-03-25T11:33:36;51754.75;;;-148.32;nan
24390;BME280;12510;56.468;-3.004;2024-03-25T11:39:04;51822.44;;;-148.32;nan
24390;BME280;12510;56.468;-3.004;2024-03-25T11:41:41;51710.97;;;-148.32;nan
24390;BME280;12510;56.468;-3.004;2024-03-25T11:44:11;51929.94;;;-148.32;nan
24390;BME280;12510;56.468;-3.004;2024-03-25T11:46:47;51770.69;;;-148.32;nan
24390;BME280;12510;56.468;-3.004;2024-03-25T11:49:31;51844.31;;;-148.32;nan
24390;BME280;12510;56.468;-3.004;2024-03-25T11:51:59;51987.66;;;-148.32;nan
24390;BME280;12510;56.468;-3.004;2024-03-25T11:54:27;51800.53;;;-148.32;nan
24390;BME280;12510;56.468;-3.004;2024-03-25T12:00:51;52037.41;;;-148.32;nan
24390;BME280;12510;56.468;-3.004;2024-03-25T12:09:44;52154.88;;;-148.32;nan
24390;BME280;12510;56.468;-3.004;2024-03-25T12:16:03;8127.47;;;-148.32;nan
24390;BME280;12510;56.468;-3.004;2024-03-25T12:18:31;42292.91;;;-148.32;nan
24390;BME280;12510;56.468;-3.004;2024-03-25T12:21:04;47208.88;;;-148.32;nan
24390;BME280;12510;56.468;-3.004;2024-03-25T12:26:48;50329.75;;;-148.32;nan
24390;BME280;12510;56.468;-3.004;2024-03-25T12:29:15;47865.06;;;-148.32;nan
24390;BME280;12510;56.468;-3.004;2024-03-25T12:44:35;50453.13;;;-148.32;nan
24390;BME280;12510;56.468;-3.004;2024-03-25T12:48:03;55979.03;;;-148.32;nan
24390;BME280;12510;56.468;-3.004;2024-03-25T13:04:43;52371.88;;;-148.32;nan
24390;BME280;12510;56.468;-3.004;2024-03-25T13:07:15;52688.44;;;-148.32;nan
24390;BME280;12510;56.468;-3.004;2024-03-25T13:09:53;57051.25;;;-148.32;nan
24390;BME280;12510;56.468;-3.004;2024-03-25T13:22:49;59826.81;;;-148.32;nan
24390;BME280;12510;56.468;-3.004;2024-03-25T13:28:23;55462.97;;;-148.32;nan
24390;BME280;12510;56.468;-3.004;2024-03-25T13:31:00;58885.47;;;-148.32;nan
24390;BME280;12510;56.468;-3.004;2024-03-25T13:33:47;60265.69;;;-148.32;nan
24390;BME280;12510;56.468;-3.004;2024-03-25T13:36:14;68688.91;;;-148.32;nan
24390;BME280;12510;56.468;-3.004;2024-03-25T13:38:40;71692.66;;;-148.32;nan
24390;BME280;12510;56.468;-3.004;2024-03-25T13:41:06;68051.25;;;-148.32;nan
24390;BME280;12510;56.468;-3.004;2024-03-25T13:46:40;61494.69;;;-148.32;nan
24390;BME280;12510;56.468;-3.004;2024-03-25T13:55:59;93196.53;;;-148.32;nan
24390;BME280;12510;56.468;-3.004;2024-03-25T13:58:26;81884.63;;;-148.32;nan
24390;BME280;12510;56.468;-3.004;2024-03-25T14:00:53;84195.84;;;-148.32;nan
24390;BME280;12510;56.468;-3.004;2024-03-25T14:03:22;79831.34;;;-148.32;nan
24390;BME280;12510;56.468;-3.004;2024-03-25T14:05:50;83168.47;;;-148.32;nan
24390;BME280;12510;56.468;-3.004;2024-03-25T14:08:16;81627.91;;;-148.32;nan
24390;BME280;12510;56.468;-3.004;2024-03-25T14:10:43;77522.63;;;-148.32;nan
24390;BME280;12510;56.468;-3.004;2024-03-25T14:13:12;75848.06;;;-148.32;nan
24390;BME280;12510;56.468;-3.004;2024-03-25T14:15:45;83939.00;;;-148.32;nan
24390;BME280;12510;56.468;-3.004;2024-03-25T14:18:12;87536.63;;;-148.32;nan
24390;BME280;12510;56.468;-3.004;2024-03-25T14:21:00;84709.63;;;-148.32;nan
24390;BME280;12510;56.468;-3.004;2024-03-25T14:23:29;83682.13;;;-148.32;nan
24390;BME280;12510;56.468;-3.004;2024-03-25T14:32:23;76004.25;;;-148.32;nan
24390;BME280;12510;56.468;-3.004;2024-03-25T14:35:10;74814.81;;;-148.32;nan
24390;BME280;12510;56.468;-3.004;2024-03-25T14:37:37;80857.84;;;-148.32;nan
24390;BME280;12510;56.468;-3.004;2024-03-25T14:40:10;80561.09;;;-148.32;nan
24390;BME280;12510;56.468;-3.004;2024-03-25T14:42:39;-12980.13;;;-148.32;nan
24390;BME280;12510;56.468;-3.004;2024-03-25T14:45:07;-12981.59;;;-148.32;nan
24390;BME280;12510;56.468;-3.004;2024-03-25T14:47:40;-12981.59;;;-148.32;nan
24390;BME280;12510;56.468;-3.004;2024-03-25T14:50:09;63517.41;;;-148.33;100.00
24390;BME280;12510;56.468;-3.004;2024-03-25T14:52:45;-12981.59;;;-148.32;nan
24390;BME280;12510;56.468;-3.004;2024-03-25T14:55:18;-12981.59;;;-148.32;nan
24390;BME280;12510;56.468;-3.004;2024-03-25T14:57:50;-12981.59;;;-148.32;nan
24390;BME280;12510;56.468;-3.004;2024-03-25T15:00:17;-12981.59;;;-148.32;nan
24390;BME280;12510;56.468;-3.004;2024-03-25T15:02:44;-12981.59;;;-148.32;nan
24390;BME280;12510;56.468;-3.004;2024-03-25T15:05:11;-12981.59;;;-148.32;nan
24390;BME280;12510;56.468;-3.004;2024-03-25T15:07:38;-12981.59;;;-148.32;nan
24390;BME280;12510;56.468;-3.004;2024-03-25T15:10:05;-12981.59;;;-148.32;nan
24390;BME280;12510;56.468;-3.004;2024-03-25T15:12:31;-12981.59;;;-148.32;nan
24390;BME280;12510;56.468;-3.004;2024-03-25T15:14:58;-12981.59;;;-148.32;nan
24390;BME280;12510;56.468;-3.004;2024-03-25T15:17:30;-12981.59;;;-148.32;nan
24390;BME280;12510;56.468;-3.004;2024-03-25T15:19:56;-12981.59;;;-148.32;nan
24390;BME280;12510;56.468;-3.004;2024-03-25T15:25:20;-12981.59;;;-148.32;nan
24390;BME280;12510;56.468;-3.004;2024-03-25T15:30:45;-12981.59;;;-148.32;nan
24390;BME280;12510;56.468;-3.004;2024-03-25T15:33:15;-12981.59;;;-148.32;nan
24390;BME280;12510;56.468;-3.004;2024-03-25T15:36:34;-12981.59;;;-148.32;nan
24390;BME280;12510;56.468;-3.004;2024-03-25T15:39:13;-12981.59;;;-148.32;nan
24390;BME280;12510;56.468;-3.004;2024-03-25T15:44:55;-12981.59;;;-148.32;nan
24390;BME280;12510;56.468;-3.004;2024-03-25T15:47:33;-12981.59;;;-148.32;nan
24390;BME280;12510;56.468;-3.004;2024-03-25T15:50:00;-12981.59;;;-148.32;nan
24390;BME280;12510;56.468;-3.004;2024-03-25T15:52:30;-12981.59;;;-148.32;nan
24390;BME280;12510;56.468;-3.004;2024-03-25T15:54:59;-12981.59;;;-148.32;nan